createdAt,value
2022-08-25T17:23:28.340Z,30.6
2022-08-25T17:29:25.475Z,30.6
2022-08-25T17:34:56.721Z,30.6
2022-08-25T17:40:36.050Z,30.6
2022-08-25T17:46:24.433Z,30.5
2022-08-25T17:52:10.258Z,30.5
2022-08-25T17:57:54.238Z,30.4
2022-08-25T18:03:42.442Z,30.4
2022-08-25T18:09:47.936Z,30.4
2022-08-25T18:15:35.541Z,30.4
2022-08-25T18:21:16.985Z,30.3
2022-08-25T18:27:14.802Z,30.4
2022-08-25T18:32:58.920Z,30.4
2022-08-25T18:38:58.049Z,30.4
2022-08-25T18:44:10.626Z,30.4
2022-08-25T18:50:05.054Z,30.4
2022-08-25T18:56:07.932Z,30.3
2022-08-25T19:01:54.834Z,30.3
2022-08-25T19:07:33.291Z,30.3
2022-08-25T19:13:30.092Z,30.3
2022-08-25T19:19:03.623Z,30.2
2022-08-25T19:25:16.299Z,30.2
2022-08-25T19:31:07.208Z,30.1
2022-08-25T19:37:37.412Z,30.1
2022-08-25T19:44:11.912Z,30.1
2022-08-25T19:49:39.811Z,30.1
2022-08-25T19:55:51.535Z,30.1
2022-08-25T20:02:06.653Z,30
2022-08-25T20:08:01.906Z,29.9
2022-08-25T20:14:09.248Z,29.9
2022-08-25T20:19:50.537Z,30
2022-08-25T20:25:53.414Z,30
2022-08-25T20:31:40.097Z,30.1
2022-08-25T20:37:40.992Z,30
2022-08-25T20:43:28.407Z,30.1
2022-08-25T20:49:18.671Z,30.1
2022-08-25T20:55:07.075Z,30.1
2022-08-25T21:00:58.055Z,30.1
2022-08-25T21:06:35.149Z,30.1
2022-08-25T21:12:13.127Z,30.1
2022-08-25T21:17:53.025Z,30.1
2022-08-25T21:23:29.705Z,30.1
2022-08-25T21:29:38.415Z,30.1
2022-08-25T21:35:41.265Z,30.1
2022-08-25T21:41:25.440Z,30.1
2022-08-25T21:47:27.604Z,30.1
2022-08-25T21:53:21.327Z,30.1
2022-08-25T21:59:05.556Z,30.1
2022-08-25T22:04:46.550Z,30.1
2022-08-25T22:10:51.059Z,30
2022-08-25T22:16:25.077Z,30
2022-08-25T22:22:15.820Z,30
2022-08-25T22:28:31.291Z,30
2022-08-25T22:34:30.187Z,30
2022-08-25T22:40:21.798Z,30
2022-08-25T22:46:15.070Z,30
2022-08-25T22:52:07.193Z,30
2022-08-25T22:57:54.657Z,30
2022-08-25T23:03:44.128Z,30
2022-08-25T23:09:46.815Z,29.9
2022-08-25T23:15:54.536Z,29.9
2022-08-25T23:21:42.338Z,29.9
2022-08-25T23:27:25.535Z,29.9
2022-08-25T23:33:23.229Z,29.9
2022-08-25T23:39:08.381Z,29.9
2022-08-25T23:44:40.934Z,29.9
2022-08-25T23:50:25.336Z,29.9
2022-08-25T23:56:10.553Z,29.9
